sensor_id;sensor_type;location;lat;lon;timestamp;P1;durP1;ratioP1;P2;durP2;ratioP2
20203;SDS011;10261;49.010;12.034;2023-02-11T00:00:14;26.42;;;14.68;;
20203;SDS011;10261;49.010;12.034;2023-02-11T00:01:18;24.90;;;15.25;;
20203;SDS011;10261;49.010;12.034;2023-02-11T00:02:24;24.80;;;13.93;;
20203;SDS011;10261;49.010;12.034;2023-02-11T00:03:29;26.23;;;15.88;;
20203;SDS011;10261;49.010;12.034;2023-02-11T00:04:33;27.30;;;14.98;;
20203;SDS011;10261;49.010;12.034;2023-02-11T00:05:35;23.00;;;13.98;;
20203;SDS011;10261;49.010;12.034;2023-02-11T00:06:38;30.60;;;15.27;;
20203;SDS011;10261;49.010;12.034;2023-02-11T00:07:41;25.40;;;13.90;;
20203;SDS011;10261;49.010;12.034;2023-02-11T00:08:44;31.08;;;15.85;;
20203;SDS011;10261;49.010;12.034;2023-02-11T00:09:46;28.00;;;16.38;;
20203;SDS011;10261;49.010;12.034;2023-02-11T00:10:50;31.58;;;16.42;;
20203;SDS011;10261;49.010;12.034;2023-02-11T00:11:53;26.00;;;14.75;;
20203;SDS011;10261;49.010;12.034;2023-02-11T00:12:56;23.63;;;13.90;;
20203;SDS011;10261;49.010;12.034;2023-02-11T00:13:58;32.22;;;16.20;;
20203;SDS011;10261;49.010;12.034;2023-02-11T00:15:04;27.75;;;15.20;;
20203;SDS011;10261;49.010;12.034;2023-02-11T00:16:08;25.38;;;15.23;;
20203;SDS011;10261;49.010;12.034;2023-02-11T00:17:12;30.40;;;15.38;;
20203;SDS011;10261;49.010;12.034;2023-02-11T00:18:15;31.25;;;16.67;;
20203;SDS011;10261;49.010;12.034;2023-02-11T00:19:17;28.33;;;15.27;;
20203;SDS011;10261;49.010;12.034;2023-02-11T00:20:20;31.08;;;16.40;;
20203;SDS011;10261;49.010;12.034;2023-02-11T00:21:23;27.23;;;15.65;;
20203;SDS011;10261;49.010;12.034;2023-02-11T00:22:27;28.25;;;17.00;;
20203;SDS011;10261;49.010;12.034;2023-02-11T00:23:29;27.73;;;15.18;;
20203;SDS011;10261;49.010;12.034;2023-02-11T00:24:32;31.00;;;15.75;;
20203;SDS011;10261;49.010;12.034;2023-02-11T00:25:38;33.53;;;16.30;;
20203;SDS011;10261;49.010;12.034;2023-02-11T00:26:42;26.00;;;15.13;;
20203;SDS011;10261;49.010;12.034;2023-02-11T00:27:45;23.45;;;13.40;;
20203;SDS011;10261;49.010;12.034;2023-02-11T00:28:48;25.23;;;15.23;;
20203;SDS011;10261;49.010;12.034;2023-02-11T00:29:51;32.08;;;14.48;;
20203;SDS011;10261;49.010;12.034;2023-02-11T00:30:55;25.05;;;14.35;;
20203;SDS011;10261;49.010;12.034;2023-02-11T00:31:58;29.73;;;15.90;;
20203;SDS011;10261;49.010;12.034;2023-02-11T00:33:05;33.53;;;16.25;;
20203;SDS011;10261;49.010;12.034;2023-02-11T00:34:07;33.20;;;14.88;;
20203;SDS011;10261;49.010;12.034;2023-02-11T00:35:10;30.08;;;15.35;;
20203;SDS011;10261;49.010;12.034;2023-02-11T00:36:13;26.17;;;16.42;;
20203;SDS011;10261;49.010;12.034;2023-02-11T00:37:17;29.90;;;14.80;;
20203;SDS011;10261;49.010;12.034;2023-02-11T00:38:19;28.38;;;14.63;;
20203;SDS011;10261;49.010;12.034;2023-02-11T00:39:22;28.45;;;16.00;;
20203;SDS011;10261;49.010;12.034;2023-02-11T00:40:24;27.75;;;15.15;;
20203;SDS011;10261;49.010;12.034;2023-02-11T00:41:27;28.80;;;15.57;;
20203;SDS011;10261;49.010;12.034;2023-02-11T00:42:30;31.42;;;15.63;;
20203;SDS011;10261;49.010;12.034;2023-02-11T00:43:33;29.60;;;15.48;;
20203;SDS011;10261;49.010;12.034;2023-02-11T00:44:36;26.17;;;14.65;;
20203;SDS011;10261;49.010;12.034;2023-02-11T00:45:39;28.00;;;16.25;;
20203;SDS011;10261;49.010;12.034;2023-02-11T00:46:42;32.30;;;14.05;;
20203;SDS011;10261;49.010;12.034;2023-02-11T00:47:45;30.77;;;15.13;;
20203;SDS011;10261;49.010;12.034;2023-02-11T00:48:47;30.30;;;14.65;;
20203;SDS011;10261;49.010;12.034;2023-02-11T00:49:52;24.90;;;14.98;;
20203;SDS011;10261;49.010;12.034;2023-02-11T00:50:53;27.15;;;14.35;;
20203;SDS011;10261;49.010;12.034;2023-02-11T00:51:56;26.83;;;15.52;;
20203;SDS011;10261;49.010;12.034;2023-02-11T00:52:58;24.67;;;14.23;;
20203;SDS011;10261;49.010;12.034;2023-02-11T00:54:01;23.08;;;13.15;;
20203;SDS011;10261;49.010;12.034;2023-02-11T00:55:04;23.55;;;14.32;;
20203;SDS011;10261;49.010;12.034;2023-02-11T00:56:08;29.40;;;15.55;;
20203;SDS011;10261;49.010;12.034;2023-02-11T00:57:10;23.73;;;13.82;;
20203;SDS011;10261;49.010;12.034;2023-02-11T00:58:13;28.60;;;14.65;;
20203;SDS011;10261;49.010;12.034;2023-02-11T00:59:15;29.38;;;15.73;;
20203;SDS011;10261;49.010;12.034;2023-02-11T01:00:18;27.40;;;14.77;;
20203;SDS011;10261;49.010;12.034;2023-02-11T01:01:20;28.85;;;15.77;;
20203;SDS011;10261;49.010;12.034;2023-02-11T01:02:25;25.83;;;14.07;;
20203;SDS011;10261;49.010;12.034;2023-02-11T01:03:27;27.70;;;15.25;;
20203;SDS011;10261;49.010;12.034;2023-02-11T01:04:30;26.27;;;14.50;;
20203;SDS011;10261;49.010;12.034;2023-02-11T01:05:32;30.10;;;15.82;;
20203;SDS011;10261;49.010;12.034;2023-02-11T01:06:35;32.53;;;15.70;;
20203;SDS011;10261;49.010;12.034;2023-02-11T01:07:37;29.98;;;16.02;;
20203;SDS011;10261;49.010;12.034;2023-02-11T01:08:40;27.75;;;14.63;;
20203;SDS011;10261;49.010;12.034;2023-02-11T01:09:42;26.30;;;15.02;;
20203;SDS011;10261;49.010;12.034;2023-02-11T01:10:45;27.17;;;15.73;;
20203;SDS011;10261;49.010;12.034;2023-02-11T01:11:54;33.47;;;16.60;;
20203;SDS011;10261;49.010;12.034;2023-02-11T01:12:57;26.83;;;16.63;;
20203;SDS011;10261;49.010;12.034;2023-02-11T01:13:59;29.52;;;14.80;;
20203;SDS011;10261;49.010;12.034;2023-02-11T01:15:03;25.52;;;15.80;;
20203;SDS011;10261;49.010;12.034;2023-02-11T01:16:06;26.98;;;15.30;;
20203;SDS011;10261;49.010;12.034;2023-02-11T01:17:10;29.75;;;15.15;;
20203;SDS011;10261;49.010;12.034;2023-02-11T01:18:13;32.35;;;15.73;;
20203;SDS011;10261;49.010;12.034;2023-02-11T01:19:16;28.35;;;15.93;;
20203;SDS011;10261;49.010;12.034;2023-02-11T01:20:19;28.45;;;15.13;;
20203;SDS011;10261;49.010;12.034;2023-02-11T01:21:24;25.05;;;15.27;;
20203;SDS011;10261;49.010;12.034;2023-02-11T01:22:26;35.20;;;17.00;;
20203;SDS011;10261;49.010;12.034;2023-02-11T01:23:29;28.33;;;15.85;;
20203;SDS011;10261;49.010;12.034;2023-02-11T01:24:31;25.30;;;14.18;;
20203;SDS011;10261;49.010;12.034;2023-02-11T01:25:34;34.38;;;15.65;;
20203;SDS011;10261;49.010;12.034;2023-02-11T01:26:36;25.23;;;14.73;;
20203;SDS011;10261;49.010;12.034;2023-02-11T01:27:39;27.63;;;15.10;;
20203;SDS011;10261;49.010;12.034;2023-02-11T01:28:41;26.02;;;13.60;;
20203;SDS011;10261;49.010;12.034;2023-02-11T01:29:44;24.17;;;14.80;;
20203;SDS011;10261;49.010;12.034;2023-02-11T01:30:46;25.70;;;16.08;;
20203;SDS011;10261;49.010;12.034;2023-02-11T01:31:49;29.38;;;15.48;;
20203;SDS011;10261;49.010;12.034;2023-02-11T01:32:51;29.38;;;14.68;;
20203;SDS011;10261;49.010;12.034;2023-02-11T01:33:55;27.15;;;14.60;;
20203;SDS011;10261;49.010;12.034;2023-02-11T01:34:58;30.00;;;15.52;;
20203;SDS011;10261;49.010;12.034;2023-02-11T01:36:01;25.88;;;15.25;;
20203;SDS011;10261;49.010;12.034;2023-02-11T01:37:05;26.27;;;14.23;;
20203;SDS011;10261;49.010;12.034;2023-02-11T01:38:07;28.05;;;16.35;;
20203;SDS011;10261;49.010;12.034;2023-02-11T01:39:16;30.50;;;15.25;;
20203;SDS011;10261;49.010;12.034;2023-02-11T01:40:18;28.77;;;15.18;;
20203;SDS011;10261;49.010;12.034;2023-02-11T01:41:21;26.55;;;14.90;;
20203;SDS011;10261;49.010;12.034;2023-02-11T01:42:23;25.40;;;14.40;;
20203;SDS011;10261;49.010;12.034;2023-02-11T01:43:28;29.40;;;14.80;;
20203;SDS011;10261;49.010;12.034;2023-02-11T01:44:35;26.48;;;15.02;;
20203;SDS011;10261;49.010;12.034;2023-02-11T01:45:55;27.80;;;15.48;;
20203;SDS011;10261;49.010;12.034;2023-02-11T01:47:19;28.42;;;15.30;;
20203;SDS011;10261;49.010;12.034;2023-02-11T01:48:23;26.55;;;15.07;;
20203;SDS011;10261;49.010;12.034;2023-02-11T01:49:31;28.30;;;15.43;;
20203;SDS011;10261;49.010;12.034;2023-02-11T01:50:35;31.42;;;15.00;;
20203;SDS011;10261;49.010;12.034;2023-02-11T01:51:41;35.05;;;14.20;;
20203;SDS011;10261;49.010;12.034;2023-02-11T01:52:48;28.02;;;14.63;;
20203;SDS011;10261;49.010;12.034;2023-02-11T01:53:50;33.85;;;15.40;;
20203;SDS011;10261;49.010;12.034;2023-02-11T01:55:12;29.88;;;17.25;;
20203;SDS011;10261;49.010;12.034;2023-02-11T01:56:33;26.27;;;15.15;;
20203;SDS011;10261;49.010;12.034;2023-02-11T01:57:56;30.13;;;16.55;;
20203;SDS011;10261;49.010;12.034;2023-02-11T01:59:05;27.60;;;15.65;;
20203;SDS011;10261;49.010;12.034;2023-02-11T02:00:12;28.27;;;14.77;;
20203;SDS011;10261;49.010;12.034;2023-02-11T02:01:21;27.50;;;15.57;;
20203;SDS011;10261;49.010;12.034;2023-02-11T02:02:26;25.98;;;15.10;;
20203;SDS011;10261;49.010;12.034;2023-02-11T02:03:34;31.58;;;16.20;;
20203;SDS011;10261;49.010;12.034;2023-02-11T02:04:43;28.45;;;15.75;;
20203;SDS011;10261;49.010;12.034;2023-02-11T02:05:53;31.35;;;15.52;;
20203;SDS011;10261;49.010;12.034;2023-02-11T02:07:01;29.08;;;15.63;;
20203;SDS011;10261;49.010;12.034;2023-02-11T02:08:08;36.53;;;16.00;;
20203;SDS011;10261;49.010;12.034;2023-02-11T02:09:19;27.85;;;15.45;;
20203;SDS011;10261;49.010;12.034;2023-02-11T02:10:24;24.77;;;15.02;;
20203;SDS011;10261;49.010;12.034;2023-02-11T02:11:29;33.00;;;17.05;;
20203;SDS011;10261;49.010;12.034;2023-02-11T02:12:31;27.90;;;15.65;;
20203;SDS011;10261;49.010;12.034;2023-02-11T02:13:34;30.45;;;15.90;;
20203;SDS011;10261;49.010;12.034;2023-02-11T02:14:37;25.05;;;15.80;;
20203;SDS011;10261;49.010;12.034;2023-02-11T02:15:43;26.33;;;16.73;;
20203;SDS011;10261;49.010;12.034;2023-02-11T02:16:50;34.13;;;16.02;;
20203;SDS011;10261;49.010;12.034;2023-02-11T02:18:00;32.17;;;16.20;;
20203;SDS011;10261;49.010;12.034;2023-02-11T02:19:14;33.72;;;14.55;;
20203;SDS011;10261;49.010;12.034;2023-02-11T02:20:55;24.60;;;14.45;;
20203;SDS011;10261;49.010;12.034;2023-02-11T02:24:07;35.13;;;15.82;;
20203;SDS011;10261;49.010;12.034;2023-02-11T02:25:35;33.80;;;16.75;;
20203;SDS011;10261;49.010;12.034;2023-02-11T02:28:43;25.27;;;13.48;;
20203;SDS011;10261;49.010;12.034;2023-02-11T02:30:32;35.53;;;15.20;;
20203;SDS011;10261;49.010;12.034;2023-02-11T02:33:43;28.65;;;14.65;;
20203;SDS011;10261;49.010;12.034;2023-02-11T02:34:51;32.92;;;15.82;;
20203;SDS011;10261;49.010;12.034;2023-02-11T02:36:01;28.48;;;16.50;;
20203;SDS011;10261;49.010;12.034;2023-02-11T02:37:11;26.13;;;14.13;;
20203;SDS011;10261;49.010;12.034;2023-02-11T02:38:19;34.22;;;16.83;;
20203;SDS011;10261;49.010;12.034;2023-02-11T02:39:26;24.35;;;14.95;;
20203;SDS011;10261;49.010;12.034;2023-02-11T02:40:32;31.75;;;17.15;;
20203;SDS011;10261;49.010;12.034;2023-02-11T02:41:39;27.80;;;15.68;;
20203;SDS011;10261;49.010;12.034;2023-02-11T02:42:42;31.55;;;16.58;;
20203;SDS011;10261;49.010;12.034;2023-02-11T02:43:47;28.48;;;15.40;;
20203;SDS011;10261;49.010;12.034;2023-02-11T02:44:50;32.15;;;16.77;;
20203;SDS011;10261;49.010;12.034;2023-02-11T02:45:54;30.02;;;16.67;;
20203;SDS011;10261;49.010;12.034;2023-02-11T02:46:56;25.50;;;16.80;;
20203;SDS011;10261;49.010;12.034;2023-02-11T02:48:01;32.90;;;16.85;;
20203;SDS011;10261;49.010;12.034;2023-02-11T02:49:05;36.70;;;17.15;;
20203;SDS011;10261;49.010;12.034;2023-02-11T02:50:12;28.08;;;16.33;;
20203;SDS011;10261;49.010;12.034;2023-02-11T02:51:24;28.58;;;15.60;;
20203;SDS011;10261;49.010;12.034;2023-02-11T02:52:45;27.83;;;15.80;;
20203;SDS011;10261;49.010;12.034;2023-02-11T02:53:57;25.70;;;14.07;;
20203;SDS011;10261;49.010;12.034;2023-02-11T02:55:10;28.13;;;15.75;;
20203;SDS011;10261;49.010;12.034;2023-02-11T02:56:23;32.45;;;15.35;;
20203;SDS011;10261;49.010;12.034;2023-02-11T02:57:36;35.97;;;16.83;;
20203;SDS011;10261;49.010;12.034;2023-02-11T02:58:52;34.90;;;17.90;;
20203;SDS011;10261;49.010;12.034;2023-02-11T03:00:09;27.75;;;14.70;;
20203;SDS011;10261;49.010;12.034;2023-02-11T03:01:19;29.88;;;15.07;;
20203;SDS011;10261;49.010;12.034;2023-02-11T03:02:30;34.80;;;17.02;;
20203;SDS011;10261;49.010;12.034;2023-02-11T03:03:40;31.95;;;16.55;;
20203;SDS011;10261;49.010;12.034;2023-02-11T03:04:50;30.33;;;17.55;;
20203;SDS011;10261;49.010;12.034;2023-02-11T03:06:00;29.70;;;16.30;;
20203;SDS011;10261;49.010;12.034;2023-02-11T03:07:08;32.63;;;16.45;;
20203;SDS011;10261;49.010;12.034;2023-02-11T03:08:20;29.90;;;15.70;;
20203;SDS011;10261;49.010;12.034;2023-02-11T03:09:29;29.77;;;16.02;;
20203;SDS011;10261;49.010;12.034;2023-02-11T03:10:35;26.77;;;15.32;;
20203;SDS011;10261;49.010;12.034;2023-02-11T03:11:39;26.17;;;14.98;;
20203;SDS011;10261;49.010;12.034;2023-02-11T03:12:42;37.47;;;15.45;;
20203;SDS011;10261;49.010;12.034;2023-02-11T03:13:47;31.95;;;16.63;;
20203;SDS011;10261;49.010;12.034;2023-02-11T03:14:51;33.33;;;17.55;;
20203;SDS011;10261;49.010;12.034;2023-02-11T03:15:54;28.83;;;15.52;;
20203;SDS011;10261;49.010;12.034;2023-02-11T03:16:59;31.15;;;17.23;;
20203;SDS011;10261;49.010;12.034;2023-02-11T03:18:05;31.02;;;15.70;;
20203;SDS011;10261;49.010;12.034;2023-02-11T03:19:14;28.95;;;15.90;;
20203;SDS011;10261;49.010;12.034;2023-02-11T03:20:21;31.20;;;18.00;;
20203;SDS011;10261;49.010;12.034;2023-02-11T03:21:23;31.30;;;16.55;;
20203;SDS011;10261;49.010;12.034;2023-02-11T03:22:29;31.90;;;17.40;;
20203;SDS011;10261;49.010;12.034;2023-02-11T03:23:36;25.23;;;14.55;;
20203;SDS011;10261;49.010;12.034;2023-02-11T03:24:42;33.58;;;16.40;;
20203;SDS011;10261;49.010;12.034;2023-02-11T03:25:47;27.75;;;15.23;;
20203;SDS011;10261;49.010;12.034;2023-02-11T03:26:53;37.13;;;17.83;;
20203;SDS011;10261;49.010;12.034;2023-02-11T03:28:02;30.88;;;16.25;;
20203;SDS011;10261;49.010;12.034;2023-02-11T03:29:09;27.30;;;16.52;;
20203;SDS011;10261;49.010;12.034;2023-02-11T03:30:15;36.25;;;17.58;;
20203;SDS011;10261;49.010;12.034;2023-02-11T03:31:24;29.33;;;15.45;;
20203;SDS011;10261;49.010;12.034;2023-02-11T03:32:31;29.50;;;16.50;;
20203;SDS011;10261;49.010;12.034;2023-02-11T03:33:38;34.42;;;16.60;;
20203;SDS011;10261;49.010;12.034;2023-02-11T03:34:47;33.92;;;18.33;;
20203;SDS011;10261;49.010;12.034;2023-02-11T03:35:55;25.83;;;16.25;;
20203;SDS011;10261;49.010;12.034;2023-02-11T03:37:01;28.15;;;16.58;;
20203;SDS011;10261;49.010;12.034;2023-02-11T03:38:10;35.42;;;17.30;;
20203;SDS011;10261;49.010;12.034;2023-02-11T03:39:18;30.00;;;16.95;;
20203;SDS011;10261;49.010;12.034;2023-02-11T03:40:25;30.88;;;16.27;;
20203;SDS011;10261;49.010;12.034;2023-02-11T03:41:29;27.98;;;14.82;;
20203;SDS011;10261;49.010;12.034;2023-02-11T03:42:35;29.85;;;16.75;;
20203;SDS011;10261;49.010;12.034;2023-02-11T03:43:41;34.70;;;16.48;;
20203;SDS011;10261;49.010;12.034;2023-02-11T03:44:47;30.90;;;17.42;;
20203;SDS011;10261;49.010;12.034;2023-02-11T03:45:53;36.42;;;18.77;;
20203;SDS011;10261;49.010;12.034;2023-02-11T03:46:59;28.88;;;16.45;;
20203;SDS011;10261;49.010;12.034;2023-02-11T03:48:03;26.52;;;16.58;;
20203;SDS011;10261;49.010;12.034;2023-02-11T03:49:11;31.92;;;15.32;;
20203;SDS011;10261;49.010;12.034;2023-02-11T03:50:18;30.63;;;16.73;;
20203;SDS011;10261;49.010;12.034;2023-02-11T03:51:22;30.83;;;16.77;;
20203;SDS011;10261;49.010;12.034;2023-02-11T03:52:26;33.40;;;17.90;;
20203;SDS011;10261;49.010;12.034;2023-02-11T03:53:29;26.77;;;16.13;;
20203;SDS011;10261;49.010;12.034;2023-02-11T03:54:32;29.10;;;16.45;;
20203;SDS011;10261;49.010;12.034;2023-02-11T03:55:35;30.73;;;17.40;;
20203;SDS011;10261;49.010;12.034;2023-02-11T03:56:43;29.98;;;16.52;;
20203;SDS011;10261;49.010;12.034;2023-02-11T03:57:50;31.77;;;16.77;;
20203;SDS011;10261;49.010;12.034;2023-02-11T03:58:53;28.20;;;15.80;;
20203;SDS011;10261;49.010;12.034;2023-02-11T03:59:56;35.92;;;17.02;;
20203;SDS011;10261;49.010;12.034;2023-02-11T04:01:00;29.50;;;16.85;;
20203;SDS011;10261;49.010;12.034;2023-02-11T04:02:03;25.55;;;15.35;;
20203;SDS011;10261;49.010;12.034;2023-02-11T04:03:06;29.83;;;15.93;;
20203;SDS011;10261;49.010;12.034;2023-02-11T04:04:08;30.55;;;16.45;;
20203;SDS011;10261;49.010;12.034;2023-02-11T04:05:12;28.25;;;15.40;;
20203;SDS011;10261;49.010;12.034;2023-02-11T04:06:17;28.52;;;16.35;;
20203;SDS011;10261;49.010;12.034;2023-02-11T04:07:20;25.90;;;15.52;;
20203;SDS011;10261;49.010;12.034;2023-02-11T04:08:22;33.35;;;16.27;;
20203;SDS011;10261;49.010;12.034;2023-02-11T04:09:25;26.98;;;15.88;;
20203;SDS011;10261;49.010;12.034;2023-02-11T04:10:27;27.98;;;16.13;;
20203;SDS011;10261;49.010;12.034;2023-02-11T04:11:30;28.42;;;16.35;;
20203;SDS011;10261;49.010;12.034;2023-02-11T04:12:33;33.22;;;17.10;;
20203;SDS011;10261;49.010;12.034;2023-02-11T04:13:36;32.88;;;18.08;;
20203;SDS011;10261;49.010;12.034;2023-02-11T04:14:38;29.90;;;16.15;;
20203;SDS011;10261;49.010;12.034;2023-02-11T04:15:41;31.38;;;17.88;;
20203;SDS011;10261;49.010;12.034;2023-02-11T04:16:43;31.70;;;17.45;;
20203;SDS011;10261;49.010;12.034;2023-02-11T04:17:46;31.38;;;16.75;;
20203;SDS011;10261;49.010;12.034;2023-02-11T04:18:48;28.65;;;16.13;;
20203;SDS011;10261;49.010;12.034;2023-02-11T04:19:51;27.85;;;15.75;;
20203;SDS011;10261;49.010;12.034;2023-02-11T04:20:53;28.50;;;16.13;;
20203;SDS011;10261;49.010;12.034;2023-02-11T04:21:57;27.27;;;15.70;;
20203;SDS011;10261;49.010;12.034;2023-02-11T04:22:59;30.95;;;16.23;;
20203;SDS011;10261;49.010;12.034;2023-02-11T04:24:02;39.95;;;17.15;;
20203;SDS011;10261;49.010;12.034;2023-02-11T04:25:05;35.70;;;18.33;;
20203;SDS011;10261;49.010;12.034;2023-02-11T04:26:09;30.90;;;18.38;;
20203;SDS011;10261;49.010;12.034;2023-02-11T04:27:11;30.85;;;17.25;;
20203;SDS011;10261;49.010;12.034;2023-02-11T04:28:14;29.08;;;16.05;;
20203;SDS011;10261;49.010;12.034;2023-02-11T04:29:16;29.52;;;16.45;;
20203;SDS011;10261;49.010;12.034;2023-02-11T04:30:19;34.47;;;17.30;;
20203;SDS011;10261;49.010;12.034;2023-02-11T04:31:21;30.23;;;16.38;;
20203;SDS011;10261;49.010;12.034;2023-02-11T04:32:24;33.25;;;17.70;;
20203;SDS011;10261;49.010;12.034;2023-02-11T04:33:26;28.00;;;16.67;;
20203;SDS011;10261;49.010;12.034;2023-02-11T04:34:29;34.10;;;17.58;;
20203;SDS011;10261;49.010;12.034;2023-02-11T04:35:31;35.05;;;17.60;;
20203;SDS011;10261;49.010;12.034;2023-02-11T04:36:34;35.05;;;18.67;;
20203;SDS011;10261;49.010;12.034;2023-02-11T04:37:38;34.15;;;17.88;;
20203;SDS011;10261;49.010;12.034;2023-02-11T04:38:40;34.58;;;17.08;;
20203;SDS011;10261;49.010;12.034;2023-02-11T04:39:43;30.95;;;17.10;;
20203;SDS011;10261;49.010;12.034;2023-02-11T04:40:45;30.88;;;16.70;;
20203;SDS011;10261;49.010;12.034;2023-02-11T04:41:48;33.13;;;17.73;;
20203;SDS011;10261;49.010;12.034;2023-02-11T04:42:50;34.63;;;18.52;;
20203;SDS011;10261;49.010;12.034;2023-02-11T04:43:53;30.40;;;17.65;;
20203;SDS011;10261;49.010;12.034;2023-02-11T04:44:55;32.70;;;18.27;;
20203;SDS011;10261;49.010;12.034;2023-02-11T04:45:58;33.35;;;17.50;;
20203;SDS011;10261;49.010;12.034;2023-02-11T04:47:00;31.67;;;17.63;;
20203;SDS011;10261;49.010;12.034;2023-02-11T04:48:03;36.38;;;17.25;;
20203;SDS011;10261;49.010;12.034;2023-02-11T04:49:06;33.08;;;17.60;;
20203;SDS011;10261;49.010;12.034;2023-02-11T04:50:09;29.33;;;16.75;;
20203;SDS011;10261;49.010;12.034;2023-02-11T04:51:11;28.10;;;17.02;;
20203;SDS011;10261;49.010;12.034;2023-02-11T04:52:13;31.27;;;16.67;;
20203;SDS011;10261;49.010;12.034;2023-02-11T04:53:17;33.17;;;16.65;;
20203;SDS011;10261;49.010;12.034;2023-02-11T04:54:20;31.67;;;17.75;;
20203;SDS011;10261;49.010;12.034;2023-02-11T04:55:22;30.15;;;16.90;;
20203;SDS011;10261;49.010;12.034;2023-02-11T04:56:25;31.63;;;15.95;;
20203;SDS011;10261;49.010;12.034;2023-02-11T04:57:27;33.22;;;17.73;;
20203;SDS011;10261;49.010;12.034;2023-02-11T04:58:30;33.85;;;18.67;;
20203;SDS011;10261;49.010;12.034;2023-02-11T04:59:32;29.45;;;16.75;;
20203;SDS011;10261;49.010;12.034;2023-02-11T05:00:35;31.98;;;17.58;;
20203;SDS011;10261;49.010;12.034;2023-02-11T05:01:36;29.98;;;17.20;;
20203;SDS011;10261;49.010;12.034;2023-02-11T05:02:39;33.45;;;17.42;;
20203;SDS011;10261;49.010;12.034;2023-02-11T05:03:42;33.78;;;18.20;;
20203;SDS011;10261;49.010;12.034;2023-02-11T05:04:45;35.88;;;19.02;;
20203;SDS011;10261;49.010;12.034;2023-02-11T05:05:47;37.47;;;19.00;;
20203;SDS011;10261;49.010;12.034;2023-02-11T05:06:50;28.73;;;16.67;;
20203;SDS011;10261;49.010;12.034;2023-02-11T05:07:52;29.65;;;17.17;;
20203;SDS011;10261;49.010;12.034;2023-02-11T05:08:57;27.30;;;16.55;;
20203;SDS011;10261;49.010;12.034;2023-02-11T05:09:58;30.27;;;17.70;;
20203;SDS011;10261;49.010;12.034;2023-02-11T05:11:01;31.58;;;18.27;;
20203;SDS011;10261;49.010;12.034;2023-02-11T05:12:04;31.77;;;18.10;;
20203;SDS011;10261;49.010;12.034;2023-02-11T05:13:07;35.22;;;18.08;;
20203;SDS011;10261;49.010;12.034;2023-02-11T05:14:09;36.42;;;18.35;;
20203;SDS011;10261;49.010;12.034;2023-02-11T05:15:12;36.70;;;17.20;;
20203;SDS011;10261;49.010;12.034;2023-02-11T05:16:14;33.75;;;19.00;;
20203;SDS011;10261;49.010;12.034;2023-02-11T05:17:17;33.67;;;18.92;;
20203;SDS011;10261;49.010;12.034;2023-02-11T05:18:19;32.30;;;17.17;;
20203;SDS011;10261;49.010;12.034;2023-02-11T05:19:22;31.65;;;16.85;;
20203;SDS011;10261;49.010;12.034;2023-02-11T05:20:24;36.78;;;19.08;;
20203;SDS011;10261;49.010;12.034;2023-02-11T05:21:27;30.98;;;17.80;;
20203;SDS011;10261;49.010;12.034;2023-02-11T05:22:29;32.40;;;18.13;;
20203;SDS011;10261;49.010;12.034;2023-02-11T05:23:32;36.22;;;19.23;;
20203;SDS011;10261;49.010;12.034;2023-02-11T05:24:36;28.25;;;18.20;;
20203;SDS011;10261;49.010;12.034;2023-02-11T05:25:39;32.92;;;17.75;;
20203;SDS011;10261;49.010;12.034;2023-02-11T05:26:41;36.30;;;19.05;;
20203;SDS011;10261;49.010;12.034;2023-02-11T05:27:44;38.25;;;19.30;;
20203;SDS011;10261;49.010;12.034;2023-02-11T05:28:46;34.30;;;18.05;;
20203;SDS011;10261;49.010;12.034;2023-02-11T05:29:49;36.35;;;18.77;;
20203;SDS011;10261;49.010;12.034;2023-02-11T05:30:51;31.27;;;17.70;;
20203;SDS011;10261;49.010;12.034;2023-02-11T05:31:54;34.28;;;17.00;;
20203;SDS011;10261;49.010;12.034;2023-02-11T05:32:56;34.20;;;18.63;;
20203;SDS011;10261;49.010;12.034;2023-02-11T05:33:59;32.35;;;19.98;;
20203;SDS011;10261;49.010;12.034;2023-02-11T05:35:04;34.67;;;19.05;;
20203;SDS011;10261;49.010;12.034;2023-02-11T05:36:08;32.03;;;16.33;;
20203;SDS011;10261;49.010;12.034;2023-02-11T05:37:11;32.63;;;17.08;;
20203;SDS011;10261;49.010;12.034;2023-02-11T05:38:14;32.88;;;19.08;;
20203;SDS011;10261;49.010;12.034;2023-02-11T05:39:16;35.83;;;18.85;;
20203;SDS011;10261;49.010;12.034;2023-02-11T05:40:26;36.13;;;18.35;;
20203;SDS011;10261;49.010;12.034;2023-02-11T05:41:28;31.48;;;18.85;;
20203;SDS011;10261;49.010;12.034;2023-02-11T05:42:31;33.40;;;16.83;;
20203;SDS011;10261;49.010;12.034;2023-02-11T05:43:33;34.22;;;18.38;;
20203;SDS011;10261;49.010;12.034;2023-02-11T05:44:36;34.05;;;19.25;;
20203;SDS011;10261;49.010;12.034;2023-02-11T05:45:38;34.47;;;17.60;;
20203;SDS011;10261;49.010;12.034;2023-02-11T05:46:41;32.22;;;18.15;;
20203;SDS011;10261;49.010;12.034;2023-02-11T05:47:43;42.00;;;18.70;;
20203;SDS011;10261;49.010;12.034;2023-02-11T05:48:46;29.70;;;18.00;;
20203;SDS011;10261;49.010;12.034;2023-02-11T05:49:48;28.92;;;16.35;;
20203;SDS011;10261;49.010;12.034;2023-02-11T05:50:53;36.17;;;19.45;;
20203;SDS011;10261;49.010;12.034;2023-02-11T05:51:55;37.15;;;19.30;;
20203;SDS011;10261;49.010;12.034;2023-02-11T05:52:58;38.88;;;18.65;;
20203;SDS011;10261;49.010;12.034;2023-02-11T05:54:00;33.75;;;17.73;;
20203;SDS011;10261;49.010;12.034;2023-02-11T05:55:04;34.47;;;18.60;;
20203;SDS011;10261;49.010;12.034;2023-02-11T05:56:07;34.22;;;18.38;;
20203;SDS011;10261;49.010;12.034;2023-02-11T05:57:11;31.85;;;18.75;;
20203;SDS011;10261;49.010;12.034;2023-02-11T05:58:14;34.60;;;19.38;;
20203;SDS011;10261;49.010;12.034;2023-02-11T05:59:17;35.58;;;18.95;;
20203;SDS011;10261;49.010;12.034;2023-02-11T06:00:28;33.63;;;19.52;;
20203;SDS011;10261;49.010;12.034;2023-02-11T06:01:31;32.75;;;18.40;;
20203;SDS011;10261;49.010;12.034;2023-02-11T06:02:33;34.05;;;18.55;;
20203;SDS011;10261;49.010;12.034;2023-02-11T06:03:36;33.90;;;19.50;;
20203;SDS011;10261;49.010;12.034;2023-02-11T06:04:38;36.50;;;19.00;;
20203;SDS011;10261;49.010;12.034;2023-02-11T06:05:41;35.67;;;19.13;;
20203;SDS011;10261;49.010;12.034;2023-02-11T06:06:46;42.55;;;19.80;;
20203;SDS011;10261;49.010;12.034;2023-02-11T06:07:49;35.97;;;17.23;;
20203;SDS011;10261;49.010;12.034;2023-02-11T06:08:51;31.90;;;18.38;;
20203;SDS011;10261;49.010;12.034;2023-02-11T06:09:54;35.47;;;18.65;;
20203;SDS011;10261;49.010;12.034;2023-02-11T06:10:55;32.97;;;17.95;;
20203;SDS011;10261;49.010;12.034;2023-02-11T06:12:00;36.78;;;18.65;;
20203;SDS011;10261;49.010;12.034;2023-02-11T06:13:02;42.28;;;19.55;;
20203;SDS011;10261;49.010;12.034;2023-02-11T06:14:05;32.45;;;19.17;;
20203;SDS011;10261;49.010;12.034;2023-02-11T06:15:07;35.65;;;19.17;;
20203;SDS011;10261;49.010;12.034;2023-02-11T06:16:10;32.67;;;18.45;;
20203;SDS011;10261;49.010;12.034;2023-02-11T06:17:13;35.05;;;18.13;;
20203;SDS011;10261;49.010;12.034;2023-02-11T06:18:16;32.00;;;17.98;;
20203;SDS011;10261;49.010;12.034;2023-02-11T06:19:18;33.30;;;19.17;;